Time;durP1;ratioP1;P1;durP2;ratioP2;P2;SDS_P1;SDS_P2;PMS_P1;PMS_P2;Temp;Humidity;BMP_temperature;BMP_pressure;BME280_temperature;BME280_humidity;BME280_pressure;Samples;Min_cycle;Max_cycle;Signal;HPM_P1;HPM_P2
2023/06/03 00:00:05;;;;;;;1.27;1.10;;;;;;;10.11;100.00;102659.72;5030852;28;20281;-73
2023/06/03 00:02:30;;;;;;;1.50;1.00;;;;;;;9.97;100.00;102650.44;5019924;28;20211;-73
2023/06/03 00:04:56;;;;;;;2.17;1.10;;;;;;;10.00;100.00;102642.91;5007750;28;20190;-75
2023/06/03 00:07:21;;;;;;;3.00;1.30;;;;;;;9.89;100.00;102650.81;5029926;28;20206;-72
2023/06/03 00:09:47;;;;;;;1.70;1.30;;;;;;;9.78;100.00;102644.28;5009122;28;20197;-73
2023/06/03 00:12:12;;;;;;;3.23;1.47;;;;;;;9.72;100.00;102632.06;5006063;28;20309;-74
2023/06/03 00:14:38;;;;;;;4.07;1.40;;;;;;;9.80;100.00;102629.88;5020273;28;20590;-72
2023/06/03 00:17:04;;;;;;;2.10;1.30;;;;;;;9.64;100.00;102641.00;5014941;28;20319;-73
2023/06/03 00:19:30;;;;;;;1.97;1.40;;;;;;;9.49;100.00;102640.22;5025469;28;20198;-73
2023/06/03 00:21:55;;;;;;;2.90;1.30;;;;;;;9.53;100.00;102637.03;5009545;28;20230;-73
2023/06/03 00:24:22;;;;;;;3.57;1.60;;;;;;;9.49;100.00;102641.91;5026548;28;20182;-75
2023/06/03 00:26:49;;;;;;;3.43;1.50;;;;;;;9.39;100.00;102642.22;5028648;28;20320;-72
2023/06/03 00:29:14;;;;;;;1.40;1.20;;;;;;;9.31;100.00;102644.34;5025734;28;20237;-73
2023/06/03 00:31:40;;;;;;;5.50;1.50;;;;;;;9.27;100.00;102645.00;5011631;28;20629;-73
2023/06/03 00:34:05;;;;;;;2.60;1.20;;;;;;;9.19;100.00;102646.28;5013153;28;20193;-73
2023/06/03 00:36:31;;;;;;;4.43;1.57;;;;;;;9.11;100.00;102654.31;5008905;28;20195;-73
2023/06/03 00:38:56;;;;;;;4.07;1.37;;;;;;;9.11;100.00;102644.09;5011972;28;20205;-73
2023/06/03 00:41:21;;;;;;;3.83;1.40;;;;;;;9.00;100.00;102655.41;5011692;28;20249;-73
2023/06/03 00:43:47;;;;;;;2.57;1.40;;;;;;;8.97;100.00;102656.13;5022118;28;20182;-73
2023/06/03 00:46:13;;;;;;;2.13;1.57;;;;;;;9.02;100.00;102648.69;5021472;28;20564;-72
2023/06/03 00:48:39;;;;;;;2.63;1.30;;;;;;;8.83;100.00;102667.25;5004495;28;20660;-72
2023/06/03 00:51:06;;;;;;;2.33;1.23;;;;;;;8.87;100.00;102669.19;5007192;28;20301;-73
2023/06/03 00:53:31;;;;;;;2.90;1.20;;;;;;;8.87;100.00;102661.53;5000797;28;20187;-73
2023/06/03 00:55:57;;;;;;;2.30;1.40;;;;;;;8.82;100.00;102665.50;4994035;28;20206;-73
2023/06/03 00:58:22;;;;;;;2.77;1.30;;;;;;;8.80;100.00;102673.88;4994202;28;20250;-74
2023/06/03 01:00:48;;;;;;;1.70;1.30;;;;;;;8.67;100.00;102669.75;4994075;28;20663;-72
2023/06/03 01:03:15;;;;;;;2.03;1.20;;;;;;;8.62;100.00;102662.63;4995547;28;20210;-72
2023/06/03 01:05:45;;;;;;;1.73;1.23;;;;;;;8.58;100.00;102661.59;5013783;28;20183;-73
2023/06/03 01:08:31;;;;;;;3.33;1.30;;;;;;;8.55;100.00;102661.41;5023115;28;20218;-72
2023/06/03 01:11:15;;;;;;;2.77;1.30;;;;;;;8.48;100.00;102659.28;4995817;28;20214;-71
2023/06/03 01:13:50;;;;;;;4.30;1.20;;;;;;;8.45;100.00;102660.78;4993049;28;20183;-71
2023/06/03 01:16:17;;;;;;;2.07;1.30;;;;;;;8.30;100.00;102665.03;5018392;28;20278;-72
2023/06/03 01:18:45;;;;;;;1.80;1.33;;;;;;;8.26;100.00;102658.88;5010105;28;20551;-72
2023/06/03 01:21:12;;;;;;;1.70;1.00;;;;;;;8.18;100.00;102647.31;5017265;28;20226;-72
2023/06/03 01:23:45;;;;;;;2.10;1.23;;;;;;;8.16;100.00;102637.81;5026846;28;20198;-72
2023/06/03 01:26:11;;;;;;;1.90;1.33;;;;;;;8.08;100.00;102644.13;5012382;28;20724;-73
2023/06/03 01:28:38;;;;;;;3.20;1.50;;;;;;;8.11;100.00;102639.22;5011678;28;20191;-74
2023/06/03 01:31:05;;;;;;;2.80;1.20;;;;;;;8.07;100.00;102638.13;4992883;28;20212;-72
2023/06/03 01:33:32;;;;;;;3.93;1.20;;;;;;;8.01;100.00;102632.69;5017588;28;20195;-72
2023/06/03 01:36:03;;;;;;;1.60;1.20;;;;;;;7.94;100.00;102633.13;5008529;28;20187;-72
2023/06/03 01:38:29;;;;;;;3.27;1.50;;;;;;;7.91;100.00;102629.50;4993114;28;20202;-73
2023/06/03 01:40:59;;;;;;;3.63;1.50;;;;;;;7.85;100.00;102624.06;4993270;28;20265;-72
2023/06/03 01:43:24;;;;;;;2.27;1.50;;;;;;;7.86;100.00;102624.16;4994450;28;20201;-72
2023/06/03 01:45:50;;;;;;;2.57;1.73;;;;;;;7.80;100.00;102617.81;5013774;28;20553;-72
2023/06/03 01:48:17;;;;;;;2.57;1.57;;;;;;;7.86;100.00;102585.91;5021118;28;20224;-74
2023/06/03 01:50:43;;;;;;;2.70;1.17;;;;;;;7.78;100.00;102569.28;4998797;28;20922;-72
2023/06/03 01:53:10;;;;;;;1.40;1.30;;;;;;;7.75;100.00;102561.47;4999712;28;20191;-74
2023/06/03 01:55:37;;;;;;;3.93;1.50;;;;;;;7.69;100.00;102558.53;5001936;28;20609;-72
2023/06/03 01:58:03;;;;;;;3.47;1.60;;;;;;;7.67;100.00;102566.88;4998337;28;20215;-72
2023/06/03 02:00:29;;;;;;;2.17;1.47;;;;;;;7.61;100.00;102571.63;4983236;28;20182;-71
2023/06/03 02:02:54;;;;;;;3.17;1.77;;;;;;;7.47;100.00;102568.25;4999389;28;20195;-72
2023/06/03 02:05:20;;;;;;;2.37;1.67;;;;;;;7.44;100.00;102560.44;4992733;28;20215;-75
2023/06/03 02:07:46;;;;;;;4.70;2.03;;;;;;;7.44;100.00;102549.38;4995178;28;20180;-74
2023/06/03 02:10:12;;;;;;;2.83;1.70;;;;;;;7.41;100.00;102551.75;5000801;28;20194;-74
2023/06/03 02:12:37;;;;;;;3.93;1.80;;;;;;;7.36;100.00;102555.66;5006211;28;20272;-73
2023/06/03 02:15:12;;;;;;;2.40;1.50;;;;;;;7.34;100.00;102545.41;5017217;28;20197;-71
2023/06/03 02:17:37;;;;;;;2.13;1.37;;;;;;;7.29;100.00;102541.72;4995556;28;20215;-72
2023/06/03 02:20:03;;;;;;;2.30;1.70;;;;;;;7.28;100.00;102551.81;5021289;28;20178;-75
2023/06/03 02:22:29;;;;;;;4.80;1.87;;;;;;;7.23;100.00;102548.97;5019546;28;20653;-78
2023/06/03 02:24:57;;;;;;;1.90;1.40;;;;;;;7.22;100.00;102551.41;5005217;28;20202;-72
2023/06/03 02:27:24;;;;;;;2.30;1.67;;;;;;;7.19;100.00;102546.16;5017001;28;20186;-73
2023/06/03 02:29:51;;;;;;;4.13;1.70;;;;;;;7.15;100.00;102547.66;5005231;28;20277;-72
2023/06/03 02:32:20;;;;;;;3.70;1.40;;;;;;;7.08;100.00;102549.72;4998792;28;20219;-72
2023/06/03 02:34:48;;;;;;;1.50;1.20;;;;;;;7.06;100.00;102546.19;4998366;28;20553;-72
2023/06/03 02:37:15;;;;;;;1.77;1.20;;;;;;;7.02;100.00;102542.59;5008510;28;20222;-74
2023/06/03 02:39:42;;;;;;;2.47;1.60;;;;;;;6.97;100.00;102553.28;5000298;28;20194;-74
2023/06/03 02:42:08;;;;;;;2.70;1.80;;;;;;;6.94;100.00;102555.63;4986552;28;20297;-73
2023/06/03 02:44:33;;;;;;;3.20;1.60;;;;;;;6.97;100.00;102558.38;5006159;28;20267;-74
2023/06/03 02:46:59;;;;;;;3.20;1.80;;;;;;;6.92;100.00;102550.47;5008478;28;20265;-74
2023/06/03 02:49:25;;;;;;;2.10;1.33;;;;;;;6.89;100.00;102546.84;4976375;28;20716;-71
2023/06/03 02:51:50;;;;;;;3.10;1.50;;;;;;;6.85;100.00;102550.88;4998444;28;20229;-74
2023/06/03 02:54:16;;;;;;;1.90;1.47;;;;;;;6.82;100.00;102552.34;5009679;28;20213;-73
2023/06/03 02:56:41;;;;;;;3.63;1.70;;;;;;;6.84;100.00;102554.19;4999551;28;20795;-71
2023/06/03 02:59:07;;;;;;;2.73;1.47;;;;;;;6.81;100.00;102555.69;5001407;28;20767;-72
2023/06/03 03:01:32;;;;;;;2.20;1.53;;;;;;;6.76;100.00;102552.84;5009272;28;20222;-72
2023/06/03 03:03:58;;;;;;;2.90;1.30;;;;;;;6.79;100.00;102560.69;4998212;28;20240;-72
2023/06/03 03:06:24;;;;;;;2.90;1.47;;;;;;;6.81;100.00;102558.22;5009603;28;20195;-72
2023/06/03 03:08:51;;;;;;;2.90;1.40;;;;;;;6.79;100.00;102560.69;4998990;28;20599;-71
2023/06/03 03:11:19;;;;;;;5.03;1.63;;;;;;;6.80;100.00;102559.00;5007036;28;20214;-72
2023/06/03 03:13:46;;;;;;;3.03;2.00;;;;;;;6.72;100.00;102563.63;4995046;28;20624;-75
2023/06/03 03:16:15;;;;;;;2.90;1.60;;;;;;;6.70;100.00;102564.31;5000079;28;20195;-72
2023/06/03 03:18:42;;;;;;;2.00;1.53;;;;;;;6.73;100.00;102559.41;5014241;28;20222;-72
2023/06/03 03:21:09;;;;;;;3.17;1.70;;;;;;;6.69;100.00;102566.00;4999802;28;20203;-73
2023/06/03 03:23:35;;;;;;;2.23;1.60;;;;;;;6.68;100.00;102569.28;4997784;28;20249;-75
2023/06/03 03:26:02;;;;;;;2.20;1.23;;;;;;;6.71;100.00;102572.03;5009026;28;20206;-72
2023/06/03 03:28:31;;;;;;;2.30;1.23;;;;;;;6.71;100.00;102564.41;5002733;28;20189;-74
2023/06/03 03:30:58;;;;;;;1.60;1.20;;;;;;;6.71;100.00;102574.59;5009366;28;20207;-73
2023/06/03 03:33:25;;;;;;;3.60;1.23;;;;;;;6.71;100.00;102579.69;5001746;28;20190;-74
2023/06/03 03:35:52;;;;;;;5.07;1.63;;;;;;;6.73;100.00;102573.00;4999560;28;20274;-72
2023/06/03 03:38:20;;;;;;;2.80;1.43;;;;;;;6.77;100.00;102569.00;5005046;28;20210;-73
2023/06/03 03:40:45;;;;;;;2.93;1.83;;;;;;;6.79;100.00;102577.59;5001167;28;20569;-75
2023/06/03 03:43:18;;;;;;;2.07;1.40;;;;;;;6.74;100.00;102577.34;5013967;28;20309;-73
2023/06/03 03:45:45;;;;;;;2.23;1.30;;;;;;;6.76;100.00;102590.13;4998975;28;20273;-73
2023/06/03 03:48:16;;;;;;;4.27;1.77;;;;;;;6.81;100.00;102583.69;4995157;28;20183;-72
2023/06/03 03:50:45;;;;;;;2.50;1.50;;;;;;;6.83;100.00;102572.81;4996976;28;20755;-73
2023/06/03 03:53:36;;;;;;;5.13;1.70;;;;;;;6.86;100.00;102582.31;4999281;28;20225;-75
2023/06/03 03:56:07;;;;;;;3.13;1.40;;;;;;;6.88;100.00;102584.16;4993396;28;20199;-73
2023/06/03 03:58:41;;;;;;;2.00;1.53;;;;;;;6.94;100.00;102591.28;4999383;28;20318;-75
2023/06/03 04:01:09;;;;;;;2.37;1.60;;;;;;;6.97;100.00;102578.75;4998500;28;20298;-74
2023/06/03 04:03:40;;;;;;;2.37;1.60;;;;;;;6.99;100.00;102579.69;5014176;28;20195;-72
2023/06/03 04:06:07;;;;;;;1.87;1.33;;;;;;;7.04;100.00;102586.84;5002745;28;20806;-74
2023/06/03 04:08:52;;;;;;;4.13;1.80;;;;;;;7.09;100.00;102579.50;4997077;28;20183;-72
2023/06/03 04:11:28;;;;;;;1.83;1.50;;;;;;;7.16;100.00;102577.41;4993253;28;20214;-75
2023/06/03 04:13:58;;;;;;;3.30;1.80;;;;;;;7.23;100.00;102579.53;4999241;28;20187;-74
2023/06/03 04:16:34;;;;;;;3.17;1.40;;;;;;;7.33;100.00;102581.84;4999065;28;20273;-78
2023/06/03 04:19:06;;;;;;;2.07;1.40;;;;;;;7.40;100.00;102576.34;5005089;28;20221;-76
2023/06/03 04:21:37;;;;;;;2.27;1.10;;;;;;;7.47;100.00;102575.03;5006931;28;20619;-72
2023/06/03 04:24:05;;;;;;;3.27;1.67;;;;;;;7.53;100.00;102576.28;4996039;28;20201;-72
2023/06/03 04:26:31;;;;;;;5.93;1.53;;;;;;;7.63;100.00;102580.22;4986136;28;20282;-77
2023/06/03 04:28:56;;;;;;;3.67;1.77;;;;;;;7.77;100.00;102582.81;4998416;28;20285;-72
2023/06/03 04:31:22;;;;;;;3.77;1.60;;;;;;;7.90;100.00;102581.84;5008350;28;20613;-72
2023/06/03 04:33:48;;;;;;;3.23;1.47;;;;;;;7.97;100.00;102582.28;5001498;28;20187;-72
2023/06/03 04:36:15;;;;;;;3.73;1.57;;;;;;;8.03;100.00;102575.00;5006340;28;20652;-72
2023/06/03 04:38:41;;;;;;;2.30;1.60;;;;;;;8.20;100.00;102581.06;4995059;28;20214;-72
2023/06/03 04:41:10;;;;;;;3.03;1.70;;;;;;;8.32;100.00;102575.00;4999708;28;20313;-72
2023/06/03 04:43:40;;;;;;;2.10;1.70;;;;;;;8.45;100.00;102576.56;4999978;28;20305;-72
2023/06/03 04:46:09;;;;;;;2.93;1.77;;;;;;;8.58;100.00;102576.44;4993049;28;20664;-72
2023/06/03 04:48:36;;;;;;;2.83;1.83;;;;;;;8.73;100.00;102583.28;5043516;28;20655;-72
2023/06/03 04:51:06;;;;;;;3.60;2.00;;;;;;;8.83;100.00;102575.31;5002842;28;20214;-73
2023/06/03 04:53:33;;;;;;;4.07;2.13;;;;;;;8.94;100.00;102573.34;5006600;28;20190;-77
2023/06/03 04:56:01;;;;;;;2.97;1.70;;;;;;;9.09;100.00;102577.59;4999244;28;20316;-76
2023/06/03 04:58:27;;;;;;;4.43;2.23;;;;;;;9.23;100.00;102580.88;5000116;28;20313;-74
2023/06/03 05:00:52;;;;;;;3.87;1.97;;;;;;;9.36;100.00;102573.91;5000101;28;20297;-75
2023/06/03 05:03:18;;;;;;;2.60;1.63;;;;;;;9.48;100.00;102577.09;5002413;28;20640;-75
2023/06/03 05:05:44;;;;;;;5.00;2.00;;;;;;;9.63;100.00;102577.03;4986499;28;20187;-72
2023/06/03 05:08:12;;;;;;;3.20;1.90;;;;;;;9.79;100.00;102565.06;5000369;28;20198;-72
2023/06/03 05:10:38;;;;;;;4.87;2.20;;;;;;;9.93;100.00;102575.97;5004091;28;20580;-73
2023/06/03 05:13:07;;;;;;;3.40;1.70;;;;;;;10.06;100.00;102579.28;5011364;28;20183;-73
2023/06/03 05:15:34;;;;;;;3.23;2.33;;;;;;;10.17;100.00;102575.53;4998689;28;20294;-74
2023/06/03 05:18:03;;;;;;;3.50;1.90;;;;;;;10.28;100.00;102570.94;5019344;28;20226;-72
2023/06/03 05:20:31;;;;;;;2.60;2.13;;;;;;;10.47;100.00;102569.31;5003498;28;20189;-72
2023/06/03 05:22:57;;;;;;;3.20;1.90;;;;;;;10.58;100.00;102557.91;5001580;28;20198;-74
2023/06/03 05:25:23;;;;;;;5.10;1.90;;;;;;;10.76;100.00;102560.44;4990532;28;20969;-73
2023/06/03 05:27:49;;;;;;;3.40;1.77;;;;;;;10.84;100.00;102524.13;4998680;28;20200;-74
2023/06/03 05:30:15;;;;;;;2.37;1.50;;;;;;;10.90;100.00;102487.63;4998523;28;20313;-73
2023/06/03 05:32:41;;;;;;;3.70;1.43;;;;;;;11.02;100.00;102501.84;5002554;28;20330;-75
2023/06/03 05:35:09;;;;;;;5.67;1.50;;;;;;;11.09;100.00;102478.25;5006790;28;20186;-76
2023/06/03 05:37:36;;;;;;;2.80;1.50;;;;;;;11.24;100.00;102460.97;5007546;28;20249;-74
2023/06/03 05:40:01;;;;;;;6.90;1.83;;;;;;;11.37;100.00;102455.53;4973703;28;20609;-72
2023/06/03 05:42:29;;;;;;;5.27;1.83;;;;;;;11.54;100.00;102458.81;4998183;28;20233;-75
2023/06/03 05:44:55;;;;;;;1.97;1.50;;;;;;;11.67;100.00;102440.56;4985376;28;20272;-73
2023/06/03 05:47:20;;;;;;;2.57;1.33;;;;;;;11.76;100.00;102411.00;4965110;28;20190;-72
2023/06/03 05:49:46;;;;;;;2.03;1.30;;;;;;;11.90;100.00;102337.13;4998392;28;20865;-74
2023/06/03 05:52:12;;;;;;;2.93;1.43;;;;;;;11.99;100.00;102320.34;4982094;28;20211;-75
2023/06/03 05:54:37;;;;;;;3.63;1.47;;;;;;;12.23;100.00;102344.41;4999677;28;20190;-72
2023/06/03 05:57:04;;;;;;;3.20;1.30;;;;;;;12.37;100.00;102321.75;4997955;28;20183;-72
2023/06/03 05:59:31;;;;;;;2.27;1.13;;;;;;;12.51;100.00;102285.47;5001048;28;20183;-74
2023/06/03 06:01:57;;;;;;;1.77;1.20;;;;;;;12.71;100.00;102273.28;4982509;28;20206;-72
2023/06/03 06:04:22;;;;;;;3.20;1.43;;;;;;;12.78;100.00;102267.53;5010943;28;20202;-76
2023/06/03 06:06:48;;;;;;;3.33;1.00;;;;;;;12.75;100.00;102208.31;5001555;28;20210;-72
2023/06/03 06:09:14;;;;;;;2.13;1.13;;;;;;;12.88;100.00;102196.75;5002849;28;20651;-73
2023/06/03 06:11:42;;;;;;;1.60;1.13;;;;;;;12.98;100.00;102203.94;5004160;28;20210;-71
2023/06/03 06:14:07;;;;;;;2.63;1.10;;;;;;;13.10;100.00;102197.47;4996356;28;20277;-72
2023/06/03 06:16:33;;;;;;;1.63;1.10;;;;;;;13.43;100.00;102203.63;5004354;28;20289;-69
2023/06/03 06:18:59;;;;;;;2.50;1.17;;;;;;;13.49;93.50;102130.91;4999904;28;20672;-73
2023/06/03 06:21:27;;;;;;;2.33;0.97;;;;;;;13.76;92.43;102142.81;4996676;28;20692;-73
2023/06/03 06:23:53;;;;;;;2.17;1.10;;;;;;;13.86;86.34;102138.78;4988559;28;20718;-75
2023/06/03 06:26:20;;;;;;;1.53;0.97;;;;;;;13.85;81.69;102143.06;5003658;28;20183;-75
2023/06/03 06:28:48;;;;;;;4.00;1.50;;;;;;;13.91;78.10;102144.94;4994227;28;20909;-74
2023/06/03 06:31:17;;;;;;;1.27;1.00;;;;;;;14.06;78.46;102173.66;4992466;28;20746;-75
2023/06/03 06:33:47;;;;;;;4.17;1.23;;;;;;;14.29;77.75;102180.31;4995045;28;20184;-76
2023/06/03 06:36:30;;;;;;;2.23;1.10;;;;;;;14.32;70.90;102165.81;5005717;28;20190;-76
2023/06/03 06:38:57;;;;;;;2.37;1.27;;;;;;;14.48;67.87;102167.97;5034038;28;20800;-75
2023/06/03 06:41:25;;;;;;;2.30;1.17;;;;;;;14.60;65.42;102201.75;5000773;28;20788;-76
2023/06/03 06:43:55;;;;;;;2.67;1.00;;;;;;;14.73;64.41;102221.84;4993936;28;20804;-76
2023/06/03 06:46:23;;;;;;;3.10;0.90;;;;;;;14.58;64.22;102223.16;5003287;28;20663;-75
2023/06/03 06:48:49;;;;;;;2.07;1.20;;;;;;;14.76;63.80;102232.25;5001127;28;20210;-74
2023/06/03 06:51:14;;;;;;;5.33;1.50;;;;;;;14.75;60.48;102224.47;4996328;28;20231;-73
2023/06/03 06:53:48;;;;;;;3.67;1.10;;;;;;;15.08;62.30;102251.06;5004943;28;20183;-74
2023/06/03 06:56:15;;;;;;;2.60;1.03;;;;;;;15.16;62.60;102258.19;4991120;28;20612;-72
2023/06/03 06:58:45;;;;;;;1.90;1.10;;;;;;;15.37;57.96;102232.88;4989601;28;20724;-72
2023/06/03 07:01:11;;;;;;;4.00;0.90;;;;;;;15.74;56.75;102221.66;5008029;28;20229;-71
2023/06/03 07:03:44;;;;;;;1.37;0.80;;;;;;;15.48;52.42;102280.44;4988756;28;20182;-70
2023/06/03 07:06:11;;;;;;;2.07;0.70;;;;;;;15.67;54.50;102338.56;4973866;28;20222;-70
2023/06/03 07:08:37;;;;;;;1.33;0.80;;;;;;;16.00;52.41;102309.19;4991842;28;20223;-70
2023/06/03 07:11:04;;;;;;;2.90;0.70;;;;;;;16.05;49.02;102322.19;4993297;28;20250;-70
2023/06/03 07:13:35;;;;;;;1.63;0.70;;;;;;;16.27;50.25;102358.84;4977479;28;20706;-71
2023/06/03 07:16:02;;;;;;;2.27;1.00;;;;;;;16.39;48.25;102332.38;4991530;28;20584;-70
2023/06/03 07:18:28;;;;;;;1.17;0.80;;;;;;;16.43;49.08;102355.75;4992350;28;20229;-71
2023/06/03 07:20:55;;;;;;;1.43;1.00;;;;;;;16.56;48.79;102338.75;4993563;28;20734;-75
2023/06/03 07:23:25;;;;;;;1.77;0.90;;;;;;;16.35;48.00;102341.75;4995030;28;20180;-75
2023/06/03 07:25:53;;;;;;;1.13;0.80;;;;;;;16.28;46.09;102332.16;5003943;28;20202;-74
2023/06/03 07:28:28;;;;;;;0.80;0.80;;;;;;;16.70;48.35;102363.16;4979803;28;20548;-74
2023/06/03 07:30:58;;;;;;;1.17;1.00;;;;;;;16.71;47.05;102339.91;4978989;28;20211;-73
2023/06/03 07:33:29;;;;;;;1.40;1.00;;;;;;;16.92;47.95;102358.44;4995203;28;20201;-75
2023/06/03 07:35:59;;;;;;;0.73;0.70;;;;;;;16.93;44.87;102331.72;4982390;28;20175;-75
2023/06/03 07:38:36;;;;;;;0.93;0.80;;;;;;;17.13;44.00;102340.66;5000800;28;20211;-74
2023/06/03 07:41:03;;;;;;;0.93;0.67;;;;;;;17.27;44.99;102361.63;4999284;28;20300;-75
2023/06/03 07:43:29;;;;;;;1.67;0.80;;;;;;;17.67;45.52;102372.66;4982858;28;20185;-73
2023/06/03 07:45:54;;;;;;;1.03;0.87;;;;;;;17.54;43.53;102331.03;5016798;28;20183;-74
2023/06/03 07:48:20;;;;;;;1.13;0.77;;;;;;;17.53;43.99;102357.75;5013087;28;20648;-76
2023/06/03 07:50:47;;;;;;;2.83;1.00;;;;;;;17.88;43.53;102348.78;5006101;28;20217;-74
2023/06/03 07:53:21;;;;;;;0.67;0.67;;;;;;;17.86;43.67;102358.25;5011309;28;20183;-75
2023/06/03 07:55:47;;;;;;;1.17;0.80;;;;;;;17.64;43.22;102354.47;4991454;28;20723;-74
2023/06/03 07:58:15;;;;;;;0.97;0.70;;;;;;;17.66;43.40;102352.78;5013153;28;20301;-74
2023/06/03 08:00:45;;;;;;;2.67;1.07;;;;;;;17.61;42.83;102344.09;5014204;28;20574;-74
2023/06/03 08:03:18;;;;;;;1.80;0.90;;;;;;;17.50;43.01;102349.94;5013635;28;20278;-73
2023/06/03 08:05:47;;;;;;;1.93;0.80;;;;;;;18.08;43.51;102355.97;4991438;28;20202;-73
2023/06/03 08:08:14;;;;;;;1.50;0.83;;;;;;;18.21;42.92;102339.72;4982162;28;20968;-74
2023/06/03 08:10:44;;;;;;;2.47;0.80;;;;;;;18.51;42.26;102340.09;5012924;28;20253;-74
2023/06/03 08:13:11;;;;;;;4.07;1.07;;;;;;;18.57;41.33;102339.31;5010237;28;20536;-74
2023/06/03 08:15:38;;;;;;;1.63;0.73;;;;;;;18.81;42.79;102362.91;5014178;28;20549;-75
2023/06/03 08:18:07;;;;;;;2.00;0.90;;;;;;;18.92;41.42;102332.72;5000542;28;20203;-74
2023/06/03 08:20:36;;;;;;;2.87;0.67;;;;;;;18.84;41.89;102349.97;5014119;28;20194;-73
2023/06/03 08:23:03;;;;;;;1.20;0.80;;;;;;;19.09;42.12;102359.72;5011631;28;20206;-73
2023/06/03 08:25:28;;;;;;;1.63;0.60;;;;;;;19.35;42.00;102353.06;5015136;28;20189;-73
2023/06/03 08:27:54;;;;;;;1.20;0.90;;;;;;;19.20;42.51;102368.50;5005956;28;20553;-74
2023/06/03 08:30:21;;;;;;;2.23;0.93;;;;;;;19.40;41.84;102360.03;5011871;28;20233;-75
2023/06/03 08:32:49;;;;;;;1.33;0.97;;;;;;;19.34;42.09;102357.38;4999775;28;20290;-75
2023/06/03 08:35:19;;;;;;;1.67;0.63;;;;;;;19.35;41.50;102340.94;5014623;28;20680;-74
2023/06/03 08:37:46;;;;;;;1.17;0.87;;;;;;;19.53;41.10;102348.88;5012316;28;20681;-74
2023/06/03 08:40:13;;;;;;;2.47;0.90;;;;;;;19.81;42.96;102401.94;4998505;28;20668;-74
2023/06/03 08:42:44;;;;;;;0.80;0.70;;;;;;;19.66;40.55;102348.09;5011929;28;20249;-74
2023/06/03 08:45:14;;;;;;;3.30;0.83;;;;;;;19.97;40.93;102354.34;5004958;28;20770;-74
2023/06/03 08:47:49;;;;;;;2.07;0.80;;;;;;;19.85;40.53;102351.69;5002547;28;20188;-75
2023/06/03 08:50:20;;;;;;;2.07;0.90;;;;;;;20.25;41.55;102390.94;5003409;28;20181;-73
2023/06/03 08:52:48;;;;;;;2.73;0.90;;;;;;;20.44;41.20;102368.47;5010577;28;20187;-75
2023/06/03 08:55:17;;;;;;;3.30;0.87;;;;;;;20.30;40.56;102346.72;4997681;28;20190;-75
2023/06/03 08:57:51;;;;;;;2.30;0.80;;;;;;;20.28;40.30;102358.88;5017535;28;20256;-74
2023/06/03 09:00:26;;;;;;;1.57;0.60;;;;;;;20.52;41.31;102359.84;5002578;28;20540;-74
2023/06/03 09:02:52;;;;;;;2.10;0.87;;;;;;;20.51;41.61;102359.81;5013141;28;20298;-75
2023/06/03 09:05:21;;;;;;;1.47;1.00;;;;;;;20.61;40.07;102349.44;4997177;28;20179;-76
2023/06/03 09:07:48;;;;;;;2.80;0.90;;;;;;;20.65;40.00;102355.53;5014538;28;20187;-74
2023/06/03 09:10:16;;;;;;;0.97;0.87;;;;;;;20.71;39.73;102348.59;5012497;28;20235;-74
2023/06/03 09:12:44;;;;;;;1.57;0.80;;;;;;;20.84;41.00;102366.00;5021482;28;20743;-76
2023/06/03 09:15:14;;;;;;;1.57;0.83;;;;;;;20.91;40.18;102340.84;5012725;28;20191;-74
2023/06/03 09:17:41;;;;;;;1.60;0.80;;;;;;;20.90;40.10;102346.91;5011170;28;20248;-74
2023/06/03 09:20:07;;;;;;;2.43;0.80;;;;;;;21.07;39.20;102329.56;5011230;28;20195;-73
2023/06/03 09:22:35;;;;;;;1.27;0.73;;;;;;;21.22;42.79;102412.97;5009938;28;20214;-72
2023/06/03 09:25:01;;;;;;;7.30;0.77;;;;;;;21.43;40.20;102356.47;5009987;28;20625;-72
2023/06/03 09:27:26;;;;;;;1.47;0.70;;;;;;;21.62;39.80;102344.31;4992312;28;20645;-72
2023/06/03 09:29:53;;;;;;;1.27;0.70;;;;;;;21.49;38.27;102333.03;4998919;28;20186;-73
2023/06/03 09:32:20;;;;;;;3.03;0.70;;;;;;;21.67;38.31;102343.44;5007689;28;20211;-73
2023/06/03 09:34:46;;;;;;;0.57;0.57;;;;;;;21.81;37.97;102346.03;5009817;28;20569;-73
2023/06/03 09:37:12;;;;;;;1.40;0.60;;;;;;;20.96;38.26;102368.63;5010627;28;20199;-73
2023/06/03 09:39:38;;;;;;;2.10;1.20;;;;;;;20.19;39.61;102396.13;5010683;28;20206;-74
2023/06/03 09:42:04;;;;;;;2.23;1.20;;;;;;;20.83;39.39;102411.09;5016522;28;20656;-74
2023/06/03 09:44:42;;;;;;;0.80;0.60;;;;;;;21.45;40.42;102439.91;5013895;28;20195;-74
2023/06/03 09:47:09;;;;;;;2.60;0.90;;;;;;;21.70;39.08;102376.50;5010165;28;20190;-74
2023/06/03 09:49:35;;;;;;;1.50;0.80;;;;;;;21.92;38.24;102355.56;5012329;28;20346;-74
2023/06/03 09:52:00;;;;;;;1.87;0.80;;;;;;;22.14;38.22;102349.41;5009379;28;20306;-73
2023/06/03 09:54:26;;;;;;;0.73;0.60;;;;;;;22.35;37.97;102338.84;4995631;28;20217;-73
2023/06/03 09:56:52;;;;;;;1.80;0.83;;;;;;;22.56;37.66;102340.53;5009853;28;20199;-74
2023/06/03 09:59:21;;;;;;;1.27;0.73;;;;;;;22.33;36.56;102341.50;5007375;28;20298;-74
2023/06/03 10:01:49;;;;;;;2.83;0.97;;;;;;;22.36;36.07;102347.56;5011548;28;20221;-74
2023/06/03 10:04:36;;;;;;;0.93;0.70;;;;;;;22.63;38.24;102375.31;5008333;28;20552;-74
2023/06/03 10:07:16;;;;;;;0.87;0.60;;;;;;;22.75;37.70;102368.28;5007311;28;20305;-74
2023/06/03 10:09:47;;;;;;;0.90;0.60;;;;;;;22.62;35.10;102326.56;4996000;28;20210;-74
2023/06/03 10:12:14;;;;;;;0.77;0.50;;;;;;;22.80;35.93;102358.69;5007278;28;20219;-74
2023/06/03 10:14:45;;;;;;;1.60;0.57;;;;;;;23.02;36.01;102341.97;5008309;28;20187;-74
2023/06/03 10:17:11;;;;;;;1.53;0.80;;;;;;;23.06;36.41;102351.50;5015431;28;20692;-74
2023/06/03 10:19:39;;;;;;;1.67;0.87;;;;;;;22.81;36.55;102336.03;5009942;28;20309;-74
2023/06/03 10:22:06;;;;;;;0.77;0.70;;;;;;;22.77;36.30;102349.97;5005223;28;20575;-74
2023/06/03 10:24:34;;;;;;;1.57;0.77;;;;;;;22.98;36.02;102353.31;5009408;28;20206;-74
2023/06/03 10:27:01;;;;;;;0.90;0.80;;;;;;;22.97;35.34;102317.59;5008055;28;20191;-74
2023/06/03 10:29:29;;;;;;;2.30;0.80;;;;;;;23.02;35.81;102326.28;5007006;28;20191;-74
2023/06/03 10:31:57;;;;;;;1.47;1.00;;;;;;;23.03;35.28;102322.81;5008971;28;20206;-74
2023/06/03 10:34:22;;;;;;;2.03;0.80;;;;;;;23.23;35.74;102335.72;4996334;28;20253;-74
2023/06/03 10:36:56;;;;;;;1.10;0.60;;;;;;;23.31;35.58;102332.19;4996556;28;20230;-73
2023/06/03 10:39:24;;;;;;;0.97;0.77;;;;;;;23.43;36.09;102345.13;5006080;28;20207;-74
2023/06/03 10:41:56;;;;;;;0.57;0.57;;;;;;;23.38;35.62;102325.16;5007575;28;20225;-74
2023/06/03 10:44:23;;;;;;;1.13;0.73;;;;;;;23.66;35.13;102324.84;5009395;28;20202;-74
2023/06/03 10:47:02;;;;;;;0.80;0.60;;;;;;;23.45;35.55;102322.47;5010149;28;20194;-74
2023/06/03 10:49:37;;;;;;;2.20;0.70;;;;;;;23.42;35.21;102319.88;4991313;28;20261;-74
2023/06/03 10:52:35;;;;;;;1.27;0.70;;;;;;;22.99;35.85;102339.38;5007775;28;20279;-72
2023/06/03 10:55:28;;;;;;;1.03;0.63;;;;;;;23.38;33.99;102305.06;4986600;28;20199;-73
2023/06/03 10:58:03;;;;;;;1.13;0.80;;;;;;;23.31;33.90;102306.03;5003801;28;20206;-73
2023/06/03 11:01:01;;;;;;;1.33;0.73;;;;;;;23.52;34.44;102323.28;4986634;28;20187;-73
2023/06/03 11:03:34;;;;;;;0.67;0.60;;;;;;;23.58;34.57;102339.75;5007078;28;20704;-73
2023/06/03 11:06:18;;;;;;;2.37;0.83;;;;;;;23.46;35.63;102346.84;4995256;28;20187;-73
2023/06/03 11:09:04;;;;;;;0.67;0.60;;;;;;;23.91;34.35;102326.34;5005134;28;20183;-74
2023/06/03 11:11:40;;;;;;;1.70;0.70;;;;;;;23.74;33.12;102293.34;5007289;28;20913;-74
2023/06/03 11:14:06;;;;;;;2.20;0.70;;;;;;;23.72;32.44;102309.09;5008075;28;20199;-74
2023/06/03 11:16:57;;;;;;;1.20;0.80;;;;;;;23.71;32.58;102296.03;5004825;28;20266;-73
2023/06/03 11:19:50;;;;;;;3.60;1.00;;;;;;;23.27;31.31;102303.44;4999629;28;20218;-73
2023/06/03 11:22:28;;;;;;;1.13;0.70;;;;;;;23.52;31.64;102307.56;5003161;28;20226;-73
2023/06/03 11:25:01;;;;;;;1.03;0.80;;;;;;;23.19;32.31;102313.97;5004896;28;20218;-75
2023/06/03 11:27:27;;;;;;;1.20;0.70;;;;;;;23.49;33.21;102342.47;4990081;28;20202;-72
2023/06/03 11:30:01;;;;;;;1.33;0.50;;;;;;;23.96;33.64;102369.06;5005295;28;20266;-76